Change the Weather History Date:

Monday, November 25, 2013

  Actual Average (KOFF) Record (KOFF)
Temperature  
Mean Temperature 34 °F -  
Max Temperature 42 °F 44 °F 64 °F (1997)
Min Temperature 25 °F 27 °F 10 °F (1996)
Degree Days  
Heating Degree Days 32    
Moisture  
Dew Point 22 °F    
Average Humidity 66    
Maximum Humidity 79    
Minimum Humidity 58    
Precipitation  
Precipitation 0.00 in - - ()
Sea Level Pressure  
Sea Level Pressure 30.16 in    
Wind  
Wind Speed 11 mph (WSW)    
Max Wind Speed 15 mph    
Max Gust Speed 22 mph    
Visibility 10 miles    
Events      
Averages and records for this station are not official NWS values.
T = Trace of Precipitation, MM = Missing Value Source: NWS Daily Summary

Daily Weather History Graph

Daily Weather History Graph

Search for Another Location

Airport or City:

Trip Planner

Search our weather history database for the weather conditions in past years. The results will help you decide how hot, cold, wet, or windy it might be!

Date:

Astronomy

Nov. 25, 2013 Rise Set
Actual Time 7:22 AM CST 4:58 PM CST
Civil Twilight 6:52 AM CST 5:28 PM CST
Nautical Twilight 6:18 AM CST 6:02 PM CST
Astronomical Twilight 5:45 AM CST 6:35 PM CST
Moon No Moon Rise 12:38 PM CST (11/25)
Length of Visible Light 10h 35m
Length of Day
9h 35m
Waning Gibbous, 51% of the Moon is Illuminated
Nov 25
Waning Gibbous
Nov 25
Last Quarter
Dec 2
New
Dec 9
First Quarter
Dec 17
Full

Hourly Weather History & Observations

Time (CST) Temp. Windchill Dew Point Humidity Pressure Visibility Wind Dir Wind Speed Gust Speed Precip Events Conditions
12:15 AM 26.6 °F 15.2 °F 14.9 °F 61% 30.22 in 10.0 mi South 13.8 mph - N/A   Overcast
12:35 AM 27.0 °F 17.3 °F 14.7 °F 60% 30.22 in 10.0 mi South 10.4 mph - N/A   Overcast
12:55 AM 27.0 °F 16.1 °F 14.7 °F 60% 30.21 in 10.0 mi South 12.7 mph - N/A   Overcast
1:15 AM 27.0 °F 16.7 °F 15.1 °F 61% 30.20 in 10.0 mi South 11.5 mph - N/A   Overcast
1:35 AM 27.0 °F 15.2 °F 14.9 °F 60% 30.19 in 10.0 mi South 15.0 mph - N/A   Overcast
1:55 AM 27.0 °F 16.7 °F 15.3 °F 61% 30.19 in 10.0 mi South 11.5 mph - N/A   Overcast
2:15 AM 26.4 °F 16.6 °F 15.6 °F 64% 30.19 in 10.0 mi South 10.4 mph - N/A   Overcast
2:35 AM 25.7 °F 15.7 °F 16.3 °F 68% 30.18 in 10.0 mi South 10.4 mph - N/A   Mostly Cloudy
2:55 AM 26.4 °F 18.0 °F 16.7 °F 67% 30.18 in 10.0 mi South 8.1 mph - N/A   Overcast
3:15 AM 27.5 °F 18.0 °F 16.7 °F 64% 30.18 in 10.0 mi South 10.4 mph 16.1 mph N/A   Overcast
3:35 AM 27.5 °F 18.6 °F 16.7 °F 64% 30.17 in 10.0 mi South 9.2 mph - N/A   Overcast
3:55 AM 27.9 °F 18.4 °F 16.9 °F 63% 30.16 in 10.0 mi South 10.4 mph - N/A   Overcast
4:15 AM 27.7 °F 16.1 °F 17.6 °F 66% 30.15 in 10.0 mi South 15.0 mph - N/A   Overcast
4:35 AM 27.7 °F 16.1 °F 17.1 °F 64% 30.14 in 10.0 mi South 15.0 mph - N/A   Overcast
4:55 AM 27.7 °F 16.1 °F 16.7 °F 63% 30.14 in 10.0 mi South 15.0 mph - N/A   Overcast
5:15 AM 27.5 °F 16.3 °F 16.7 °F 64% 30.15 in 10.0 mi South 13.8 mph - N/A   Overcast
5:35 AM 27.3 °F 16.6 °F 17.1 °F 65% 30.14 in 10.0 mi South 12.7 mph - N/A   Overcast
5:55 AM 27.3 °F 17.7 °F 17.2 °F 66% 30.14 in 10.0 mi South 10.4 mph - N/A   Overcast
6:15 AM 27.3 °F 18.4 °F 17.6 °F 67% 30.14 in 10.0 mi South 9.2 mph - N/A   Overcast
6:35 AM 27.3 °F 17.7 °F 17.8 °F 67% 30.13 in 10.0 mi SSW 10.4 mph - N/A   Mostly Cloudy
6:55 AM 27.3 °F 16.6 °F 18.1 °F 68% 30.14 in 10.0 mi SSW 12.7 mph - N/A   Overcast
7:15 AM 27.5 °F 18.0 °F 18.5 °F 69% 30.14 in 10.0 mi SSW 10.4 mph - N/A   Overcast
7:35 AM 28.2 °F 17.2 °F 18.5 °F 67% 30.14 in 10.0 mi South 13.8 mph 17.3 mph N/A   Overcast
7:55 AM 28.4 °F 18.0 °F 18.9 °F 67% 30.15 in 10.0 mi SSW 12.7 mph - N/A   Overcast
8:15 AM 28.4 °F 18.5 °F 18.5 °F 66% 30.16 in 10.0 mi SSW 11.5 mph - N/A   Mostly Cloudy
8:35 AM 28.4 °F 19.1 °F 19.0 °F 68% 30.16 in 10.0 mi SW 10.4 mph 16.1 mph N/A   Mostly Cloudy
8:55 AM 29.8 °F 18.9 °F 19.4 °F 65% 30.15 in 10.0 mi SW 15.0 mph - N/A   Overcast
9:15 AM 29.7 °F 19.6 °F 20.1 °F 68% 30.15 in 10.0 mi SW 12.7 mph 17.3 mph N/A   Scattered Clouds
9:35 AM 32.0 °F 22.5 °F 21.6 °F 65% 30.16 in 10.0 mi WSW 12.7 mph 18.4 mph N/A   Mostly Cloudy
9:55 AM 32.0 °F 21.6 °F 22.1 °F 67% 30.16 in 10.0 mi WSW 15.0 mph - N/A   Overcast
10:15 AM 34.0 °F 24.2 °F 23.2 °F 65% 30.16 in 10.0 mi WSW 15.0 mph 21.9 mph N/A   Mostly Cloudy
10:35 AM 34.9 °F 25.7 °F 23.7 °F 64% 30.16 in 10.0 mi WSW 13.8 mph - N/A   Mostly Cloudy
10:55 AM 34.2 °F 24.8 °F 23.9 °F 66% 30.16 in 10.0 mi WSW 13.8 mph - N/A   Overcast
11:15 AM 34.7 °F 26.4 °F 24.3 °F 66% 30.15 in 10.0 mi WSW 11.5 mph - N/A   Overcast
11:35 AM 35.1 °F 27.4 °F 24.8 °F 66% 30.15 in 10.0 mi WSW 10.4 mph - N/A   Mostly Cloudy
11:55 AM 35.6 °F 28.0 °F 25.7 °F 67% 30.14 in 10.0 mi WSW 10.4 mph - N/A   Scattered Clouds
12:15 PM 36.3 °F 28.4 °F 25.9 °F 66% 30.13 in 10.0 mi West 11.5 mph - N/A   Clear
12:35 PM 38.8 °F 31.6 °F 26.8 °F 62% 30.14 in 10.0 mi West 11.5 mph - N/A   Clear
12:55 PM 40.3 °F 33.9 °F 27.5 °F 60% 30.13 in 10.0 mi WNW 10.4 mph - N/A   Clear
1:15 PM 41.0 °F 33.9 °F 27.5 °F 59% 30.12 in 10.0 mi West 12.7 mph 16.1 mph N/A   Clear
1:35 PM 40.6 °F 34.3 °F 28.0 °F 61% 30.11 in 10.0 mi West 10.4 mph 16.1 mph N/A   Scattered Clouds
1:55 PM 40.8 °F 35.0 °F 27.9 °F 60% 30.11 in 10.0 mi West 9.2 mph - N/A   Mostly Cloudy
2:15 PM 41.9 °F 36.9 °F 28.4 °F 59% 30.11 in 10.0 mi West 8.1 mph - N/A   Scattered Clouds
2:35 PM 42.3 °F 37.3 °F 28.4 °F 58% 30.10 in 10.0 mi NW 8.1 mph - N/A   Scattered Clouds
2:55 PM 42.3 °F 37.3 °F 28.9 °F 59% 30.11 in 10.0 mi NW 8.1 mph - N/A   Clear
3:15 PM 41.9 °F 36.9 °F 27.9 °F 58% 30.11 in 10.0 mi NW 8.1 mph - N/A   Clear
3:35 PM 41.0 °F 38.0 °F 27.7 °F 59% 30.11 in 10.0 mi WNW 4.6 mph - N/A   Clear
3:55 PM 40.6 °F 37.5 °F 27.9 °F 60% 30.12 in 10.0 mi West 4.6 mph - N/A   Clear
4:15 PM 40.1 °F 38.0 °F 27.5 °F 61% 30.13 in 10.0 mi West 3.5 mph - N/A   Clear
4:35 PM 40.1 °F - 27.3 °F 60% 30.13 in 10.0 mi Calm Calm - N/A   Clear
4:55 PM 38.7 °F 35.2 °F 26.6 °F 62% 30.13 in 10.0 mi WNW 4.6 mph - N/A   Clear
5:15 PM 37.8 °F 34.2 °F 26.1 °F 63% 30.13 in 10.0 mi West 4.6 mph - N/A   Clear
5:35 PM 37.2 °F 32.6 °F 25.2 °F 62% 30.14 in 10.0 mi WNW 5.8 mph - N/A   Clear
5:55 PM 35.1 °F 30.1 °F 24.6 °F 66% 30.15 in 10.0 mi WNW 5.8 mph - N/A   Clear
6:15 PM 35.1 °F 29.3 °F 24.8 °F 66% 30.15 in 10.0 mi NW 6.9 mph - N/A   Clear
6:35 PM 33.1 °F 26.9 °F 24.4 °F 71% 30.15 in 10.0 mi NW 6.9 mph - N/A   Clear
6:55 PM 34.2 °F 29.0 °F 24.8 °F 69% 30.16 in 10.0 mi NW 5.8 mph - N/A   Clear
7:15 PM 34.7 °F 28.8 °F 25.7 °F 70% 30.16 in 10.0 mi NW 6.9 mph - N/A   Clear
7:35 PM 34.7 °F 28.1 °F 25.9 °F 70% 30.17 in 10.0 mi NW 8.1 mph - N/A   Clear
7:55 PM 35.2 °F 29.5 °F 26.6 °F 71% 30.17 in 10.0 mi NNW 6.9 mph - N/A   Clear
8:15 PM 36.5 °F 31.0 °F 26.4 °F 67% 30.17 in 10.0 mi NNW 6.9 mph - N/A   Clear
8:35 PM 36.5 °F 31.0 °F 26.2 °F 66% 30.18 in 10.0 mi NNW 6.9 mph - N/A   Clear
8:55 PM 35.4 °F 30.5 °F 25.9 °F 68% 30.18 in 10.0 mi NW 5.8 mph - N/A   Clear
9:15 PM 34.3 °F 29.2 °F 25.7 °F 71% 30.18 in 10.0 mi NW 5.8 mph - N/A   Clear
9:35 PM 33.6 °F 28.4 °F 25.7 °F 73% 30.19 in 10.0 mi NW 5.8 mph - N/A   Clear
9:55 PM 32.9 °F 29.8 °F 25.2 °F 73% 30.19 in 10.0 mi WNW 3.5 mph - N/A   Clear
10:15 PM 32.2 °F 28.9 °F 24.4 °F 73% 30.19 in 10.0 mi WNW 3.5 mph - N/A   Clear
10:35 PM 32.0 °F 26.4 °F 24.1 °F 73% 30.19 in 10.0 mi NW 5.8 mph - N/A   Clear
10:55 PM 31.1 °F 25.4 °F 23.7 °F 74% 30.20 in 10.0 mi WNW 5.8 mph - N/A   Clear
11:15 PM 30.0 °F 23.2 °F 23.0 °F 75% 30.19 in 10.0 mi West 6.9 mph - N/A   Clear
11:35 PM 29.1 °F 22.1 °F 23.0 °F 78% 30.19 in 10.0 mi WNW 6.9 mph - N/A   Clear
11:55 PM 28.8 °F 22.6 °F 23.0 °F 79% 30.19 in 10.0 mi West 5.8 mph - N/A   Clear